This is the latest recevied weather packets stored in our database for station/object AA7DG. If no packets are shown the sender has not sent any weather packets the latest 10 day(s).
| Time | Temp. | Humidity | Pressure | Rain* | Wind** | Luminosity | Snow |
|---|---|---|---|---|---|---|---|
| 1777300506 | 5.56° C | 75% | 1014.2 hPa | - | - | - | - |
| 1777295101 | 2.22° C | 86% | 1013.9 hPa | - | - | - | - |
| 1777293301 | 2.22° C | 85% | 1013.5 hPa | - | - | - | - |
| 1777292402 | 2.22° C | 83% | 1013.5 hPa | - | - | - | - |
| 1777290001 | 2.78° C | 83% | 1013.5 hPa | - | - | - | - |
| 1777289702 | 2.78° C | 83% | 1013.5 hPa | - | - | - | - |
| 1777287303 | 3.33° C | 79% | 1013.5 hPa | - | - | - | - |
| 1777286711 | 3.89° C | 79% | 1013.5 hPa | - | - | - | - |
| 1777286118 | 3.89° C | 79% | 1013.2 hPa | - | - | - | - |
| 1777281006 | 4.44° C | 75% | 1013.2 hPa | - | - | - | - |
| 1777279205 | 5° C | 72% | 1013.5 hPa | - | - | - | - |
| 1777277707 | 5° C | 72% | 1013.5 hPa | - | - | - | - |
| 1777276801 | 5.56° C | 71% | 1013.5 hPa | - | - | - | - |
| 1777274701 | 5.56° C | 71% | 1013.5 hPa | - | - | - | - |
| 1777274402 | 5.56° C | 72% | 1013.2 hPa | - | - | - | - |
| 1777274101 | 5.56° C | 72% | 1013.2 hPa | - | - | - | - |
| 1777272902 | 5.56° C | 71% | 1013.2 hPa | - | - | - | - |
| 1777272001 | 5.56° C | 71% | 1013.2 hPa | - | - | - | - |
| 1777271706 | 5.56° C | 70% | 1013.2 hPa | - | - | - | - |
| 1777270205 | 6.11° C | 69% | 1012.9 hPa | - | - | - | - |
| 1777269016 | 6.11° C | 66% | 1012.9 hPa | - | - | - | - |
* Rain since midnight (hover to see other rain measurements)
** Current wind speed in m/s (hover to see current wind gust speed)